UKDR/KWG METAR and TAF weather

Enter ICAO airport designator
Station Type Date Time Source
UKDR METAR 2021/07/30 07:00 UTC NOAA

UKDR 300700Z 32004MPS 290V010 9999 SCT026CB 23/18 Q1010 R36/09//70 TEMPO -TSRA BKN013CB


Station Type Date Time Source
UKDR Decoded METAR 2021/07/30 07:00 UTC NOAA

Krivyy Rih / Dnipropetrovs'k, Ukraine (UKDR) 48-03N 033-13-12E
Jul 30, 2021 - 03:00 AM EDT / 2021.07.30 0700 UTC
Wind: from the NW (320 degrees) at 9 MPH (8 KT) (direction variable):0
Visibility: greater than 7 mile(s):0
Sky conditions: partly cloudy
Weather: Cumulonimbus clouds observed
Temperature: 73 F (23 C)
Dew Point: 64 F (18 C)
Relative Humidity: 73%
Pressure (altimeter): 29.83 in. Hg (1010 hPa)
ob: UKDR 300700Z 32004MPS 290V010 9999 SCT026CB 23/18 Q1010 R36/09//70 TEMPO -TSRA BKN013CB
cycle: 7

Station Type Date Time Source
UKDR TAF 2021/07/30 06:00 UTC NOAA

TAF UKDR 300503Z 3006/3106 32005G10MPS 9999 SCT030 SCT030CB TX34/3012Z TN20/3102Z
TEMPO 3006/3018 VRB10G17MPS 1000 TSRAGR SQ SCT003 BKN013CB

Example: see airport list